Time;durP1;ratioP1;P1;durP2;ratioP2;P2;SDS_P1;SDS_P2;PMS_P1;PMS_P2;Temp;Humidity;BMP_temperature;BMP_pressure;BME280_temperature;BME280_humidity;BME280_pressure;Samples;Min_cycle;Max_cycle;Signal;HPM_P1;HPM_P2
2021/08/13 00:00:13;;;;;;;17.67;11.03;;;;;;;21.47;100.00;96239.41;1044177;28;20021;-71
2021/08/13 00:00:43;;;;;;;21.80;11.90;;;;;;;21.48;100.00;96241.00;1044556;28;20061;-71
2021/08/13 00:01:14;;;;;;;22.90;11.77;;;;;;;21.47;100.00;96244.84;1044209;28;20520;-71
2021/08/13 00:01:45;;;;;;;19.90;12.07;;;;;;;21.49;100.00;96237.94;1044236;28;20028;-71
2021/08/13 00:02:15;;;;;;;21.00;11.82;;;;;;;21.48;100.00;96243.72;1040033;28;20033;-71
2021/08/13 00:02:46;;;;;;;22.27;12.30;;;;;;;21.49;100.00;96237.16;1040172;28;20029;-71
2021/08/13 00:03:17;;;;;;;19.77;11.90;;;;;;;21.51;100.00;96241.13;1044087;28;20115;-71
2021/08/13 00:03:47;;;;;;;20.75;11.73;;;;;;;21.52;100.00;96239.22;1044228;28;20024;-71
2021/08/13 00:04:18;;;;;;;21.93;11.17;;;;;;;21.53;100.00;96233.44;1044522;28;20531;-71
2021/08/13 00:04:48;;;;;;;19.20;12.20;;;;;;;21.53;100.00;96241.59;1044425;28;20025;-71
2021/08/13 00:05:18;;;;;;;21.17;12.20;;;;;;;21.53;100.00;96238.06;1044208;28;20138;-71
2021/08/13 00:05:49;;;;;;;21.77;12.17;;;;;;;21.52;100.00;96241.94;1044109;28;20060;-71
2021/08/13 00:06:20;;;;;;;20.10;12.23;;;;;;;21.47;100.00;96232.06;1044148;28;20074;-71
2021/08/13 00:06:50;;;;;;;16.70;11.47;;;;;;;21.45;100.00;96236.25;1044103;28;20032;-71
2021/08/13 00:07:21;;;;;;;19.73;11.80;;;;;;;21.45;100.00;96238.97;1044239;28;20040;-71
2021/08/13 00:07:51;;;;;;;23.93;12.03;;;;;;;21.47;100.00;96234.78;1044242;28;20131;-71
2021/08/13 00:08:22;;;;;;;28.63;12.37;;;;;;;21.41;100.00;96238.84;1044475;28;20436;-71
2021/08/13 00:08:52;;;;;;;25.50;12.07;;;;;;;21.42;100.00;96237.69;1046677;28;20520;-71
2021/08/13 00:09:22;;;;;;;16.63;11.83;;;;;;;21.43;100.00;96235.78;1044124;28;20020;-71
2021/08/13 00:09:53;;;;;;;18.93;11.83;;;;;;;21.44;100.00;96238.16;1043928;28;20017;-71
2021/08/13 00:10:23;;;;;;;23.37;12.57;;;;;;;21.46;100.00;96244.06;1044075;28;20418;-71
2021/08/13 00:10:54;;;;;;;21.63;12.33;;;;;;;21.45;100.00;96239.75;1044170;28;20466;-71
2021/08/13 00:11:24;;;;;;;20.23;12.20;;;;;;;21.46;100.00;96235.91;1044493;28;20127;-71
2021/08/13 00:11:55;;;;;;;23.57;11.60;;;;;;;21.45;100.00;96238.97;1044489;28;20041;-71
2021/08/13 00:12:25;;;;;;;21.60;11.30;;;;;;;21.46;100.00;96241.34;1044454;28;20032;-71
2021/08/13 00:12:58;;;;;;;18.00;12.23;;;;;;;21.49;100.00;96243.38;1044558;28;20381;-71
2021/08/13 00:13:28;;;;;;;27.45;12.35;;;;;;;21.49;100.00;96240.66;1044283;28;20025;-71
2021/08/13 00:13:59;;;;;;;21.53;12.13;;;;;;;21.51;100.00;96243.84;1044460;28;20021;-71
2021/08/13 00:14:29;;;;;;;16.87;11.97;;;;;;;21.52;100.00;96239.22;1044460;28;20028;-71
2021/08/13 00:15:00;;;;;;;24.60;12.67;;;;;;;21.54;100.00;96237.72;1044334;28;20032;-71
2021/08/13 00:15:30;;;;;;;24.73;12.90;;;;;;;21.56;100.00;96242.84;1044348;28;20020;-71
2021/08/13 00:16:00;;;;;;;23.60;12.03;;;;;;;21.56;100.00;96245.56;1044193;28;20032;-71
2021/08/13 00:16:31;;;;;;;19.23;11.20;;;;;;;21.55;100.00;96241.28;1039890;28;20017;-71
2021/08/13 00:17:02;;;;;;;21.30;12.43;;;;;;;21.57;100.00;96232.78;1040059;28;20037;-71
2021/08/13 00:17:32;;;;;;;23.17;11.90;;;;;;;21.58;100.00;96240.59;1040084;28;20112;-71
2021/08/13 00:18:03;;;;;;;21.17;11.37;;;;;;;21.58;100.00;96237.88;1044131;28;20087;-71
2021/08/13 00:18:33;;;;;;;22.67;12.27;;;;;;;21.50;100.00;96244.19;1044420;28;20013;-71
2021/08/13 00:19:04;;;;;;;24.33;11.60;;;;;;;21.48;100.00;96241.78;1044529;28;20037;-71
2021/08/13 00:19:34;;;;;;;18.37;11.83;;;;;;;21.47;100.00;96242.13;1044381;28;20025;-71
2021/08/13 00:20:05;;;;;;;15.87;11.27;;;;;;;21.51;100.00;96245.78;1044472;28;20525;-70
2021/08/13 00:20:36;;;;;;;23.17;12.23;;;;;;;21.53;100.00;96248.94;1044393;28;20028;-71
2021/08/13 00:21:07;;;;;;;22.75;12.27;;;;;;;21.52;100.00;96240.00;1044070;28;20028;-71
2021/08/13 00:21:37;;;;;;;22.87;12.13;;;;;;;21.47;100.00;96244.84;1044088;28;20032;-71
2021/08/13 00:22:08;;;;;;;21.40;11.50;;;;;;;21.49;100.00;96248.81;1044209;28;20493;-71
2021/08/13 00:22:38;;;;;;;19.03;11.80;;;;;;;21.51;100.00;96249.28;1044068;28;20040;-71
2021/08/13 00:23:08;;;;;;;25.77;12.20;;;;;;;21.51;100.00;96243.06;1044137;28;20028;-71
2021/08/13 00:23:39;;;;;;;21.90;11.70;;;;;;;21.53;100.00;96248.94;1044135;28;20033;-71
2021/08/13 00:24:09;;;;;;;19.23;11.27;;;;;;;21.54;100.00;96247.81;1044081;28;20435;-71
2021/08/13 00:24:40;;;;;;;22.87;11.17;;;;;;;21.55;100.00;96249.44;1044101;28;20013;-71
2021/08/13 00:25:10;;;;;;;20.70;12.17;;;;;;;21.55;100.00;96249.44;1044116;28;20025;-71
2021/08/13 00:25:41;;;;;;;22.10;11.93;;;;;;;21.55;100.00;96254.88;1044059;28;20082;-71
2021/08/13 00:26:11;;;;;;;16.37;11.37;;;;;;;21.55;100.00;96257.59;1044154;28;20068;-71
2021/08/13 00:26:41;;;;;;;18.27;11.57;;;;;;;21.56;100.00;96251.00;1044017;28;20025;-71
2021/08/13 00:27:12;;;;;;;29.20;12.00;;;;;;;21.57;100.00;96255.31;1039578;28;20056;-71
2021/08/13 00:27:42;;;;;;;20.50;11.57;;;;;;;21.58;100.00;96253.41;1031710;28;20030;-71
2021/08/13 00:28:13;;;;;;;19.50;11.13;;;;;;;21.59;100.00;96252.25;1027837;28;20019;-71
2021/08/13 00:28:43;;;;;;;18.83;11.40;;;;;;;21.60;100.00;96260.09;1031843;28;20015;-71
2021/08/13 00:29:13;;;;;;;23.67;11.47;;;;;;;21.62;100.00;96257.03;1036037;28;20026;-71
2021/08/13 00:29:44;;;;;;;21.30;11.10;;;;;;;21.61;100.00;96261.69;1044176;28;20210;-71
2021/08/13 00:30:14;;;;;;;22.23;11.20;;;;;;;21.61;100.00;96256.25;1043983;28;20494;-71
2021/08/13 00:30:45;;;;;;;20.60;11.93;;;;;;;21.62;100.00;96259.75;1039987;28;20018;-71
2021/08/13 00:31:15;;;;;;;18.07;11.20;;;;;;;21.62;100.00;96265.19;1040025;28;20064;-71
2021/08/13 00:31:45;;;;;;;19.87;11.90;;;;;;;21.59;100.00;96260.41;1035953;28;20118;-71
2021/08/13 00:32:16;;;;;;;18.77;11.53;;;;;;;21.59;100.00;96266.66;1039814;28;20021;-71
2021/08/13 00:32:46;;;;;;;16.83;11.03;;;;;;;21.58;100.00;96264.28;1040007;28;20026;-71
2021/08/13 00:33:17;;;;;;;17.47;10.93;;;;;;;21.59;100.00;96263.13;1040086;28;20021;-71
2021/08/13 00:33:47;;;;;;;22.93;11.20;;;;;;;21.56;100.00;96258.38;1044027;28;20056;-71
2021/08/13 00:34:17;;;;;;;22.87;10.70;;;;;;;21.56;100.00;96269.25;1040361;28;20029;-71
2021/08/13 00:34:48;;;;;;;19.33;11.10;;;;;;;21.51;100.00;96265.59;1040293;28;20418;-71
2021/08/13 00:35:18;;;;;;;18.07;11.50;;;;;;;21.52;100.00;96264.47;1040401;28;20470;-71
2021/08/13 00:35:49;;;;;;;17.10;11.17;;;;;;;21.53;100.00;96265.25;1040304;28;20030;-71
2021/08/13 00:36:19;;;;;;;15.93;11.00;;;;;;;21.51;100.00;96271.03;1040253;28;20470;-71
2021/08/13 00:36:50;;;;;;;19.87;10.73;;;;;;;21.51;100.00;96271.03;1040289;28;20018;-70
2021/08/13 00:37:20;;;;;;;15.33;10.43;;;;;;;21.53;100.00;96276.16;1040176;28;20026;-70
2021/08/13 00:37:50;;;;;;;15.87;10.97;;;;;;;21.54;100.00;96283.16;1040257;28;20433;-71
2021/08/13 00:38:21;;;;;;;15.63;10.90;;;;;;;21.50;100.00;96276.81;1039829;28;20079;-71
2021/08/13 00:38:51;;;;;;;19.30;10.80;;;;;;;21.45;100.00;96280.53;1039972;28;20052;-71
2021/08/13 00:39:22;;;;;;;17.33;11.27;;;;;;;21.43;100.00;96281.97;1035945;28;20384;-71
2021/08/13 00:39:52;;;;;;;26.70;11.30;;;;;;;21.41;100.00;96278.81;1035961;28;20021;-71
2021/08/13 00:40:23;;;;;;;20.83;10.97;;;;;;;21.35;100.00;96280.94;1039964;28;20355;-71
2021/08/13 00:40:53;;;;;;;18.20;10.77;;;;;;;21.37;100.00;96288.75;1039942;28;20057;-71
2021/08/13 00:41:24;;;;;;;19.33;11.00;;;;;;;21.38;100.00;96287.63;1040315;28;20036;-71
2021/08/13 00:41:54;;;;;;;19.43;10.80;;;;;;;21.38;100.00;96295.78;1040275;28;20030;-71
2021/08/13 00:42:24;;;;;;;18.87;10.17;;;;;;;21.38;100.00;96293.84;1040223;28;20026;-71
2021/08/13 00:42:55;;;;;;;18.43;12.17;;;;;;;21.35;100.00;96302.69;1040306;28;20391;-71
2021/08/13 00:43:25;;;;;;;19.13;11.43;;;;;;;21.35;100.00;96293.75;1040319;28;20458;-70
2021/08/13 00:43:56;;;;;;;20.27;11.43;;;;;;;21.33;100.00;96298.69;1040241;28;20029;-71
2021/08/13 00:44:28;;;;;;;18.63;11.80;;;;;;;21.29;100.00;96304.78;1040283;28;20021;-71
2021/08/13 00:44:59;;;;;;;15.98;11.13;;;;;;;21.25;100.00;96311.22;1040202;28;20025;-70
2021/08/13 00:45:29;;;;;;;18.30;11.17;;;;;;;21.22;100.00;96307.22;1040273;28;20029;-71
2021/08/13 00:45:59;;;;;;;17.27;10.67;;;;;;;21.21;100.00;96316.50;1040222;28;20075;-71
2021/08/13 00:46:30;;;;;;;18.40;10.77;;;;;;;21.12;100.00;96325.84;1039910;28;20099;-71
2021/08/13 00:47:00;;;;;;;21.20;11.80;;;;;;;21.02;100.00;96327.78;1040483;28;20021;-71
2021/08/13 00:47:31;;;;;;;26.30;11.13;;;;;;;20.91;100.00;96323.88;1040244;28;20029;-71
2021/08/13 00:48:01;;;;;;;26.23;11.77;;;;;;;20.90;100.00;96326.94;1040941;28;20104;-71
2021/08/13 00:48:32;;;;;;;22.63;11.40;;;;;;;20.90;100.00;96329.66;1041094;28;20459;-70
2021/08/13 00:49:02;;;;;;;26.37;11.93;;;;;;;20.84;100.00;96333.69;1041118;28;20092;-70
2021/08/13 00:49:32;;;;;;;27.63;11.57;;;;;;;20.79;100.00;96340.09;1041163;28;20047;-70
2021/08/13 00:50:03;;;;;;;21.47;12.00;;;;;;;20.75;100.00;96339.13;1041084;28;20055;-71
2021/08/13 00:50:34;;;;;;;24.38;12.32;;;;;;;20.71;100.00;96336.28;1040998;28;20055;-71
2021/08/13 00:51:04;;;;;;;18.80;11.80;;;;;;;20.75;100.00;96339.94;1032441;28;20034;-71
2021/08/13 00:51:35;;;;;;;25.17;11.73;;;;;;;20.73;100.00;96339.47;1032696;28;20018;-71
2021/08/13 00:52:05;;;;;;;22.27;12.00;;;;;;;20.67;100.00;96340.75;1032648;28;20055;-71
2021/08/13 00:52:37;;;;;;;24.50;11.90;;;;;;;20.65;100.00;96345.72;1032839;28;20503;-71
2021/08/13 00:53:08;;;;;;;19.67;11.77;;;;;;;20.63;100.00;96341.75;1036682;28;20021;-71
2021/08/13 00:53:39;;;;;;;22.03;12.17;;;;;;;20.61;100.00;96338.56;1033111;28;20022;-71
2021/08/13 00:54:09;;;;;;;24.90;13.30;;;;;;;20.65;100.00;96343.00;1036605;28;20018;-71
2021/08/13 00:54:39;;;;;;;26.70;12.40;;;;;;;20.68;100.00;96330.72;1041098;28;20017;-71
2021/08/13 00:55:10;;;;;;;22.20;12.20;;;;;;;20.56;100.00;96334.09;1040975;28;20013;-70
2021/08/13 00:55:40;;;;;;;20.50;12.80;;;;;;;20.57;100.00;96332.97;1036635;28;20406;-70
2021/08/13 00:56:11;;;;;;;21.60;11.90;;;;;;;20.52;100.00;96333.16;1036580;28;20022;-71
2021/08/13 00:56:41;;;;;;;26.33;12.00;;;;;;;20.57;100.00;96332.19;1032678;28;20381;-71
2021/08/13 00:57:12;;;;;;;35.67;13.13;;;;;;;20.56;100.00;96330.59;1036718;28;20489;-71
2021/08/13 00:57:42;;;;;;;30.77;12.07;;;;;;;20.58;100.00;96329.16;1040867;28;20472;-71
2021/08/13 00:58:12;;;;;;;24.00;12.67;;;;;;;20.60;100.00;96321.47;1040824;28;20054;-71
2021/08/13 00:58:43;;;;;;;27.27;13.80;;;;;;;20.64;100.00;96324.34;1032916;28;20048;-71
2021/08/13 00:59:13;;;;;;;19.63;11.50;;;;;;;20.62;100.00;96316.50;1034819;28;20047;-71
2021/08/13 00:59:44;;;;;;;21.37;11.97;;;;;;;20.60;100.00;96316.03;1034474;28;20030;-71
2021/08/13 01:00:15;;;;;;;22.10;12.40;;;;;;;20.62;100.00;96313.78;1035109;28;20019;-71
2021/08/13 01:00:45;;;;;;;23.30;12.30;;;;;;;20.62;100.00;96313.00;1043247;28;20156;-72
2021/08/13 01:01:16;;;;;;;24.13;12.63;;;;;;;20.61;100.00;96309.47;1046723;28;20418;-71
2021/08/13 01:01:46;;;;;;;23.43;12.27;;;;;;;20.64;100.00;96310.75;1043156;28;20067;-71
2021/08/13 01:02:17;;;;;;;27.83;12.20;;;;;;;20.66;100.00;96311.22;1042890;28;20109;-71
2021/08/13 01:02:47;;;;;;;19.13;11.27;;;;;;;20.65;100.00;96305.00;1043057;28;20076;-71
2021/08/13 01:03:18;;;;;;;22.37;11.90;;;;;;;20.62;100.00;96302.13;1041315;28;20441;-71
2021/08/13 01:03:48;;;;;;;19.83;11.57;;;;;;;20.63;100.00;96309.97;1040792;28;20379;-71
2021/08/13 01:04:19;;;;;;;18.60;11.00;;;;;;;20.65;100.00;96307.72;1040737;28;20044;-71
2021/08/13 01:04:50;;;;;;;16.47;11.40;;;;;;;20.67;100.00;96315.53;1042515;28;20108;-71
2021/08/13 01:05:20;;;;;;;24.83;12.23;;;;;;;20.67;100.00;96310.88;1042925;28;20025;-71
2021/08/13 01:05:51;;;;;;;22.03;11.93;;;;;;;20.70;100.00;96320.31;1043463;28;20037;-72
2021/08/13 01:06:21;;;;;;;19.77;12.57;;;;;;;20.70;100.00;96314.88;1043197;28;20028;-71
2021/08/13 01:06:52;;;;;;;17.93;10.77;;;;;;;20.70;100.00;96310.25;1043343;28;20026;-71
2021/08/13 01:07:22;;;;;;;20.43;13.03;;;;;;;20.71;100.00;96308.31;1043500;28;20009;-71
2021/08/13 01:07:52;;;;;;;21.70;11.80;;;;;;;20.73;100.00;96315.03;1043388;28;20030;-71
2021/08/13 01:08:23;;;;;;;19.13;11.47;;;;;;;20.74;100.00;96318.53;1041486;28;20654;-71
2021/08/13 01:08:53;;;;;;;20.77;11.67;;;;;;;20.72;100.00;96320.78;1045208;28;20029;-71
2021/08/13 01:09:24;;;;;;;18.80;11.83;;;;;;;20.73;100.00;96316.97;1045390;28;20025;-71
2021/08/13 01:09:54;;;;;;;20.97;11.57;;;;;;;20.74;100.00;96324.75;1045199;28;20067;-71
2021/08/13 01:10:25;;;;;;;22.33;11.40;;;;;;;20.76;100.00;96310.84;1045074;28;20417;-71
2021/08/13 01:11:27;;;;;;;21.27;11.80;;;;;;;20.73;100.00;96315.03;1040630;28;20525;-71
2021/08/13 01:12:02;;;;;;;19.85;11.70;;;;;;;20.72;100.00;96318.84;1048575;28;20037;-71
2021/08/13 01:12:46;;;;;;;21.15;12.40;;;;;;;20.71;100.00;96319.19;1046806;28;20513;-71
2021/08/13 01:13:23;;;;;;;27.48;12.25;;;;;;;20.71;100.00;96309.13;1040699;28;20566;-71
2021/08/13 01:13:55;;;;;;;21.58;12.02;;;;;;;20.74;100.00;96321.25;1028513;28;20023;-71
2021/08/13 01:14:47;;;;;;;19.90;12.23;;;;;;;20.73;100.00;96317.75;1028588;28;20017;-71
2021/08/13 01:15:17;;;;;;;18.48;11.65;;;;;;;20.74;100.00;96313.09;1036603;28;20099;-71
2021/08/13 01:15:52;;;;;;;22.40;11.53;;;;;;;20.79;100.00;96312.13;1043069;28;20415;-71
2021/08/13 01:16:22;;;;;;;22.75;11.57;;;;;;;20.79;100.00;96312.13;1044358;28;20017;-71
2021/08/13 01:16:53;;;;;;;24.23;12.10;;;;;;;20.79;100.00;96312.13;1040567;28;20950;-71
2021/08/13 01:17:23;;;;;;;20.17;11.70;;;;;;;20.77;100.00;96315.16;1033328;28;20042;-71
2021/08/13 01:18:11;;;;;;;19.33;11.73;;;;;;;20.79;100.00;96312.13;1032516;28;20148;-71
2021/08/13 01:18:45;;;;;;;18.70;11.95;;;;;;;20.82;100.00;96312.25;1036579;28;20034;-71
2021/08/13 01:19:23;;;;;;;18.27;11.27;;;;;;;20.84;100.00;96314.66;1035372;28;20507;-71
2021/08/13 01:20:05;;;;;;;20.13;10.90;;;;;;;20.77;100.00;96307.78;1036539;28;20121;-71
2021/08/13 01:21:32;;;;;;;20.83;11.38;;;;;;;20.80;100.00;96308.28;1033329;28;20030;-71
2021/08/13 01:22:06;;;;;;;21.52;12.10;;;;;;;20.79;100.00;96306.69;1040364;28;20030;-71
2021/08/13 01:22:48;;;;;;;18.58;11.80;;;;;;;20.80;100.00;96309.06;1036423;28;20033;-71
2021/08/13 01:23:25;;;;;;;21.90;12.27;;;;;;;20.78;100.00;96305.91;1036433;28;20029;-71
2021/08/13 01:23:59;;;;;;;18.92;10.63;;;;;;;20.79;100.00;96304.78;1028213;28;20042;-71
2021/08/13 01:24:30;;;;;;;20.23;11.70;;;;;;;20.81;100.00;96305.22;1030587;28;20485;-71
2021/08/13 01:25:01;;;;;;;18.07;11.57;;;;;;;20.82;100.00;96308.75;1032382;28;20049;-71
2021/08/13 01:25:35;;;;;;;20.65;11.82;;;;;;;20.79;100.00;96312.13;1033073;28;20657;-71
2021/08/13 01:26:06;;;;;;;27.33;11.60;;;;;;;20.76;100.00;96310.84;1028209;28;20037;-71
2021/08/13 01:26:40;;;;;;;22.00;10.80;;;;;;;20.77;100.00;96307.00;1024302;29;20131;-71
2021/08/13 01:27:13;;;;;;;17.48;10.85;;;;;;;20.77;100.00;96310.50;1032393;28;20073;-71
2021/08/13 01:27:46;;;;;;;20.83;11.55;;;;;;;20.77;100.00;96307.00;1034266;28;20086;-71
2021/08/13 01:28:28;;;;;;;19.48;11.18;;;;;;;20.71;100.00;96309.13;1037765;28;20482;-71
2021/08/13 01:29:23;;;;;;;16.80;11.15;;;;;;;20.69;100.00;96314.09;1043121;28;20025;-71
2021/08/13 01:30:17;;;;;;;18.25;11.38;;;;;;;20.64;100.00;96322.41;1041563;28;20485;-71
2021/08/13 01:30:47;;;;;;;17.73;11.07;;;;;;;20.62;100.00;96316.50;1040631;28;20112;-71
2021/08/13 01:31:23;;;;;;;18.70;11.80;;;;;;;20.61;100.00;96320.34;1040192;28;20033;-71
2021/08/13 01:32:00;;;;;;;16.05;10.65;;;;;;;20.61;100.00;96317.63;1035871;28;20014;-71
2021/08/13 01:32:36;;;;;;;20.33;11.32;;;;;;;20.62;100.00;96323.84;1039547;28;20501;-71
2021/08/13 01:33:12;;;;;;;18.80;11.10;;;;;;;20.60;100.00;96316.03;1042792;28;20017;-71
2021/08/13 01:33:42;;;;;;;20.70;11.50;;;;;;;20.60;100.00;96321.47;1047084;28;20032;-71
2021/08/13 01:34:12;;;;;;;16.87;10.97;;;;;;;20.59;100.00;96330.75;1044800;28;20035;-71
2021/08/13 01:34:45;;;;;;;17.53;11.73;;;;;;;20.62;100.00;96324.66;1036496;28;20032;-71
2021/08/13 01:35:22;;;;;;;18.55;11.02;;;;;;;20.63;100.00;96323.53;1029491;28;20109;-71
2021/08/13 01:35:53;;;;;;;16.75;11.50;;;;;;;20.64;100.00;96327.06;1031979;28;20033;-70
2021/08/13 01:36:25;;;;;;;18.90;10.97;;;;;;;20.63;100.00;96320.03;1028441;28;20046;-70
2021/08/13 01:36:58;;;;;;;16.27;11.07;;;;;;;20.64;100.00;96322.41;1032526;28;20018;-70
2021/08/13 01:37:29;;;;;;;18.38;10.27;;;;;;;20.66;100.00;96320.16;1032988;28;20161;-71
2021/08/13 01:38:05;;;;;;;18.88;10.52;;;;;;;20.65;100.00;96337.59;1037152;28;20109;-71
2021/08/13 01:38:36;;;;;;;14.55;11.27;;;;;;;20.65;100.00;96320.50;1037746;28;20041;-71
2021/08/13 01:39:06;;;;;;;19.27;11.20;;;;;;;20.67;100.00;96329.91;1033730;28;20029;-71
2021/08/13 01:39:37;;;;;;;19.90;11.40;;;;;;;20.71;100.00;96327.34;1032537;28;20025;-70
2021/08/13 01:40:07;;;;;;;19.70;10.93;;;;;;;20.71;100.00;96330.84;1033096;28;20249;-71
2021/08/13 01:40:42;;;;;;;16.53;11.13;;;;;;;20.72;100.00;96331.63;1028599;28;20031;-71
2021/08/13 01:41:13;;;;;;;18.27;10.93;;;;;;;20.69;100.00;96324.16;1037269;28;20586;-71
2021/08/13 01:41:43;;;;;;;15.30;10.30;;;;;;;20.69;100.00;96321.44;1032475;28;20033;-71
2021/08/13 01:42:14;;;;;;;18.13;10.87;;;;;;;20.70;100.00;96321.09;1029876;28;20494;-71
2021/08/13 01:42:45;;;;;;;17.03;10.73;;;;;;;20.71;100.00;96321.91;1028403;28;20054;-71
2021/08/13 01:43:16;;;;;;;16.60;10.53;;;;;;;20.71;100.00;96328.13;1028761;28;20070;-71
2021/08/13 01:43:46;;;;;;;16.38;11.23;;;;;;;20.69;100.00;96322.22;1032739;28;20073;-70
2021/08/13 01:44:17;;;;;;;18.13;10.97;;;;;;;20.70;100.00;96323.81;1032754;28;20081;-70
2021/08/13 01:44:47;;;;;;;18.40;11.33;;;;;;;20.70;100.00;96326.53;1028595;28;20229;-70
2021/08/13 01:45:22;;;;;;;19.50;11.23;;;;;;;20.68;100.00;96322.56;1028414;28;20527;-70
2021/08/13 01:45:52;;;;;;;16.27;10.98;;;;;;;20.69;100.00;96326.88;1025016;28;20023;-70
2021/08/13 01:46:22;;;;;;;30.23;11.43;;;;;;;20.68;100.00;96326.09;1024553;28;20393;-71
2021/08/13 01:46:54;;;;;;;22.80;11.33;;;;;;;20.68;100.00;96325.28;1025558;28;20030;-71
2021/08/13 01:47:26;;;;;;;17.77;10.85;;;;;;;20.67;100.00;96332.59;1024835;28;20025;-71
2021/08/13 01:47:56;;;;;;;15.93;10.25;;;;;;;20.69;100.00;96335.81;1024782;28;20484;-71
2021/08/13 01:48:28;;;;;;;23.40;11.50;;;;;;;20.70;100.00;96326.53;1026084;28;20074;-71
2021/08/13 01:48:58;;;;;;;15.88;10.52;;;;;;;20.70;100.00;96331.97;1024726;28;20047;-71
2021/08/13 01:49:30;;;;;;;17.33;10.60;;;;;;;20.70;100.00;96331.97;1036444;28;20018;-71
2021/08/13 01:50:00;;;;;;;20.25;11.80;;;;;;;20.71;100.00;96330.84;1036844;28;20026;-71
2021/08/13 01:50:31;;;;;;;17.07;10.60;;;;;;;20.71;100.00;96332.75;1040511;28;20033;-71
2021/08/13 01:51:01;;;;;;;16.67;10.67;;;;;;;20.73;100.00;96328.63;1040353;28;20104;-71
2021/08/13 01:51:32;;;;;;;18.37;11.57;;;;;;;20.73;100.00;96331.31;1036472;28;20009;-71
2021/08/13 01:52:03;;;;;;;16.30;10.93;;;;;;;20.73;100.00;96328.63;1032528;28;20030;-71
2021/08/13 01:52:34;;;;;;;14.70;10.05;;;;;;;20.72;100.00;96324.28;1036382;28;20018;-71
2021/08/13 01:53:05;;;;;;;17.77;10.13;;;;;;;20.71;100.00;96328.13;1036674;28;20557;-71
2021/08/13 01:53:35;;;;;;;15.33;10.73;;;;;;;20.71;100.00;96328.13;1040701;28;20024;-71
2021/08/13 01:54:05;;;;;;;22.40;10.83;;;;;;;20.70;100.00;96321.09;1044426;28;20032;-70
2021/08/13 01:54:36;;;;;;;17.40;11.13;;;;;;;20.71;100.00;96328.13;1048814;28;20019;-71
2021/08/13 01:55:07;;;;;;;19.43;11.07;;;;;;;20.72;100.00;96329.72;1048709;28;20020;-71
2021/08/13 01:55:37;;;;;;;17.73;10.83;;;;;;;20.69;100.00;96326.88;1044678;28;20017;-71
2021/08/13 01:56:07;;;;;;;19.17;10.83;;;;;;;20.68;100.00;96326.09;1036387;28;20084;-70
2021/08/13 01:56:38;;;;;;;17.63;10.53;;;;;;;20.67;100.00;96326.38;1036146;28;20041;-70
2021/08/13 01:57:08;;;;;;;16.67;10.27;;;;;;;20.68;100.00;96336.94;1032460;28;20022;-69
2021/08/13 01:57:39;;;;;;;17.97;11.10;;;;;;;20.68;100.00;96334.22;1032546;28;20018;-70
2021/08/13 01:58:09;;;;;;;18.60;11.53;;;;;;;20.70;100.00;96328.47;1036472;28;20511;-71
2021/08/13 01:58:40;;;;;;;23.57;11.73;;;;;;;20.70;100.00;96334.69;1036389;28;20084;-70
2021/08/13 01:59:10;;;;;;;22.10;10.40;;;;;;;20.69;100.00;96333.09;1036037;28;20029;-70
2021/08/13 01:59:41;;;;;;;18.07;10.90;;;;;;;20.66;100.00;96331.03;1035939;28;20543;-70
2021/08/13 02:00:15;;;;;;;17.77;11.00;;;;;;;20.65;100.00;96340.28;1036427;28;20498;-70
2021/08/13 02:00:46;;;;;;;20.05;10.98;;;;;;;20.65;100.00;96328.63;1036376;28;20108;-70
2021/08/13 02:01:16;;;;;;;15.70;11.03;;;;;;;20.64;100.00;96327.84;1032998;28;20538;-70
2021/08/13 02:01:47;;;;;;;20.10;10.47;;;;;;;20.66;100.00;96339.16;1037088;28;20010;-71
2021/08/13 02:02:18;;;;;;;16.57;9.90;;;;;;;20.65;100.00;96339.50;1040594;28;20025;-71
2021/08/13 02:02:48;;;;;;;20.77;11.90;;;;;;;20.64;100.00;96335.19;1040651;28;20029;-70
2021/08/13 02:03:18;;;;;;;20.37;12.53;;;;;;;20.60;100.00;96337.75;1044650;28;20013;-70
2021/08/13 02:03:49;;;;;;;27.43;12.60;;;;;;;20.57;100.00;96340.31;1044588;28;20016;-70
2021/08/13 02:04:20;;;;;;;23.90;13.43;;;;;;;20.53;100.00;96344.84;1036413;28;20017;-71
2021/08/13 02:04:52;;;;;;;20.52;12.52;;;;;;;20.50;100.00;96335.41;1036553;28;20045;-70
2021/08/13 02:05:25;;;;;;;20.13;13.32;;;;;;;20.55;100.00;96335.22;1040296;28;20211;-70
2021/08/13 02:05:56;;;;;;;22.77;12.13;;;;;;;20.56;100.00;96331.38;1041232;28;20041;-70
2021/08/13 02:06:29;;;;;;;18.83;11.93;;;;;;;20.55;100.00;96335.22;1036257;28;20418;-70
2021/08/13 02:06:59;;;;;;;23.30;12.25;;;;;;;20.56;100.00;96333.31;1032282;28;20029;-70
2021/08/13 02:07:31;;;;;;;19.47;11.50;;;;;;;20.55;100.00;96332.50;1032380;28;20029;-70
2021/08/13 02:08:03;;;;;;;21.33;11.82;;;;;;;20.56;100.00;96342.25;1029271;28;20599;-70
2021/08/13 02:08:34;;;;;;;22.55;12.88;;;;;;;20.55;100.00;96324.38;1037466;28;20026;-71
2021/08/13 02:09:05;;;;;;;20.38;12.40;;;;;;;20.54;100.00;96333.63;1036437;28;20088;-70
2021/08/13 02:09:35;;;;;;;20.13;12.43;;;;;;;20.51;100.00;96326.13;1036838;28;20581;-70
2021/08/13 02:10:06;;;;;;;20.80;11.97;;;;;;;20.53;100.00;96329.34;1036355;28;20030;-70
2021/08/13 02:10:37;;;;;;;19.95;11.90;;;;;;;20.55;100.00;96329.00;1036667;28;20018;-70
2021/08/13 02:11:07;;;;;;;18.57;11.80;;;;;;;20.52;100.00;96327.72;1032328;28;20521;-70
2021/08/13 02:11:38;;;;;;;18.77;12.37;;;;;;;20.53;100.00;96332.06;1036347;28;20014;-70
2021/08/13 02:12:08;;;;;;;19.07;12.50;;;;;;;20.52;100.00;96325.00;1028242;28;20452;-70
2021/08/13 02:12:39;;;;;;;16.93;11.00;;;;;;;20.53;100.00;96332.06;1028329;28;20531;-70
2021/08/13 02:13:10;;;;;;;21.07;11.90;;;;;;;20.52;100.00;96327.72;1032361;28;20503;-70
2021/08/13 02:13:40;;;;;;;17.38;11.85;;;;;;;20.55;100.00;96323.56;1032636;28;20438;-70
2021/08/13 02:14:11;;;;;;;16.90;10.90;;;;;;;20.54;100.00;96325.50;1032048;28;20014;-70
2021/08/13 02:14:41;;;;;;;22.07;12.40;;;;;;;20.50;100.00;96327.25;1028325;28;20681;-71
2021/08/13 02:15:12;;;;;;;18.93;11.70;;;;;;;20.50;100.00;96327.25;1028322;28;20031;-71
2021/08/13 02:15:44;;;;;;;21.63;12.27;;;;;;;20.52;100.00;96327.72;1028508;28;20357;-70
2021/08/13 02:16:15;;;;;;;19.08;12.50;;;;;;;20.53;100.00;96332.06;1032113;28;20511;-70
2021/08/13 02:16:50;;;;;;;17.00;11.38;;;;;;;20.53;100.00;96328.53;1033512;28;20018;-70
2021/08/13 02:17:20;;;;;;;20.33;11.55;;;;;;;20.51;100.00;96332.34;1040404;28;20375;-70
2021/08/13 02:18:01;;;;;;;15.70;10.73;;;;;;;20.51;100.00;96329.63;1033160;28;20120;-70
2021/08/13 02:18:31;;;;;;;;;;;;;;;20.47;100.00;96327.91;1036908;28;20382;-71
2021/08/13 02:19:22;;;;;;;19.63;11.87;;;;;;;20.44;100.00;96323.91;1033742;28;19910;-71
2021/08/13 02:20:00;;;;;;;18.17;11.82;;;;;;;20.43;100.00;96325.03;1036274;28;20483;-70
2021/08/13 02:20:30;;;;;;;19.83;11.50;;;;;;;20.42;100.00;96330.75;1032207;28;20072;-70
2021/08/13 02:21:04;;;;;;;19.83;11.83;;;;;;;20.42;100.00;96312.59;1027980;28;20027;-70
2021/08/13 02:21:36;;;;;;;20.27;12.18;;;;;;;20.41;100.00;96321.81;1027232;28;20079;-70
2021/08/13 02:22:07;;;;;;;18.42;11.32;;;;;;;20.41;100.00;96318.31;1029387;28;20498;-70
2021/08/13 02:22:37;;;;;;;15.20;11.07;;;;;;;20.42;100.00;96320.72;1033810;28;20222;-70
2021/08/13 02:23:08;;;;;;;18.93;11.73;;;;;;;20.42;100.00;96319.91;1040134;28;20032;-70
2021/08/13 02:23:38;;;;;;;24.13;11.83;;;;;;;20.43;100.00;96332.38;1040397;28;20041;-70
2021/08/13 02:24:08;;;;;;;19.40;11.43;;;;;;;20.41;100.00;96323.75;1040357;28;20028;-70
2021/08/13 02:24:39;;;;;;;19.23;11.70;;;;;;;20.34;100.00;96324.25;1032193;28;20034;-70
2021/08/13 02:25:09;;;;;;;21.00;11.37;;;;;;;20.36;100.00;96326.63;1028215;28;20035;-70